sensor_id;sensor_type;location;lat;lon;timestamp;temperature;humidity
7844;DHT22;3967;48.702;9.326;2024-01-10T00:02:03;-2.30;78.50
7844;DHT22;3967;48.702;9.326;2024-01-10T00:04:30;-2.30;78.60
7844;DHT22;3967;48.702;9.326;2024-01-10T00:06:57;-2.20;78.60
7844;DHT22;3967;48.702;9.326;2024-01-10T00:09:23;-2.20;78.70
7844;DHT22;3967;48.702;9.326;2024-01-10T00:11:50;-2.20;79.20
7844;DHT22;3967;48.702;9.326;2024-01-10T00:14:17;-2.20;79.20
7844;DHT22;3967;48.702;9.326;2024-01-10T00:16:44;-2.20;79.30
7844;DHT22;3967;48.702;9.326;2024-01-10T00:19:11;-2.20;78.80
7844;DHT22;3967;48.702;9.326;2024-01-10T00:21:37;-2.20;78.90
7844;DHT22;3967;48.702;9.326;2024-01-10T00:24:04;-2.20;78.70
7844;DHT22;3967;48.702;9.326;2024-01-10T00:26:31;-2.20;77.40
7844;DHT22;3967;48.702;9.326;2024-01-10T00:28:58;-2.20;77.00
7844;DHT22;3967;48.702;9.326;2024-01-10T00:31:30;-2.20;77.40
7844;DHT22;3967;48.702;9.326;2024-01-10T00:33:57;-2.20;76.90
7844;DHT22;3967;48.702;9.326;2024-01-10T00:36:25;-2.20;77.10
7844;DHT22;3967;48.702;9.326;2024-01-10T00:38:52;-2.20;77.20
7844;DHT22;3967;48.702;9.326;2024-01-10T00:41:18;-2.20;77.00
7844;DHT22;3967;48.702;9.326;2024-01-10T00:43:45;-2.20;77.20
7844;DHT22;3967;48.702;9.326;2024-01-10T00:46:12;-2.20;77.70
7844;DHT22;3967;48.702;9.326;2024-01-10T00:48:39;-2.30;78.10
7844;DHT22;3967;48.702;9.326;2024-01-10T00:51:06;-2.30;78.50
7844;DHT22;3967;48.702;9.326;2024-01-10T00:53:35;-2.30;78.40
7844;DHT22;3967;48.702;9.326;2024-01-10T00:56:02;-2.20;78.00
7844;DHT22;3967;48.702;9.326;2024-01-10T00:58:29;-2.30;78.00
7844;DHT22;3967;48.702;9.326;2024-01-10T01:00:56;-2.30;78.60
7844;DHT22;3967;48.702;9.326;2024-01-10T01:03:23;-2.30;79.00
7844;DHT22;3967;48.702;9.326;2024-01-10T01:05:50;-2.30;79.30
7844;DHT22;3967;48.702;9.326;2024-01-10T01:08:17;-2.30;79.10
7844;DHT22;3967;48.702;9.326;2024-01-10T01:10:44;-2.30;79.00
7844;DHT22;3967;48.702;9.326;2024-01-10T01:13:10;-2.30;79.40
7844;DHT22;3967;48.702;9.326;2024-01-10T01:15:37;-2.30;79.90
7844;DHT22;3967;48.702;9.326;2024-01-10T01:18:04;-2.30;80.40
7844;DHT22;3967;48.702;9.326;2024-01-10T01:20:31;-2.30;79.80
7844;DHT22;3967;48.702;9.326;2024-01-10T01:22:58;-2.30;78.90
7844;DHT22;3967;48.702;9.326;2024-01-10T01:25:25;-2.30;78.20
7844;DHT22;3967;48.702;9.326;2024-01-10T01:27:51;-2.30;77.50
7844;DHT22;3967;48.702;9.326;2024-01-10T01:30:18;-2.30;77.60
7844;DHT22;3967;48.702;9.326;2024-01-10T01:32:46;-2.30;77.60
7844;DHT22;3967;48.702;9.326;2024-01-10T01:35:12;-2.30;77.50
7844;DHT22;3967;48.702;9.326;2024-01-10T01:37:39;-2.30;77.20
7844;DHT22;3967;48.702;9.326;2024-01-10T01:40:06;-2.50;76.80
7844;DHT22;3967;48.702;9.326;2024-01-10T01:42:33;-2.60;77.20
7844;DHT22;3967;48.702;9.326;2024-01-10T01:45:00;-2.50;77.70
7844;DHT22;3967;48.702;9.326;2024-01-10T01:47:27;-2.50;78.00
7844;DHT22;3967;48.702;9.326;2024-01-10T01:49:54;-2.50;78.90
7844;DHT22;3967;48.702;9.326;2024-01-10T01:52:21;-2.60;79.50
7844;DHT22;3967;48.702;9.326;2024-01-10T01:54:48;-2.60;79.80
7844;DHT22;3967;48.702;9.326;2024-01-10T01:57:15;-2.40;79.30
7844;DHT22;3967;48.702;9.326;2024-01-10T01:59:42;-2.50;77.90
7844;DHT22;3967;48.702;9.326;2024-01-10T02:02:09;-2.50;77.60
7844;DHT22;3967;48.702;9.326;2024-01-10T02:04:37;-2.50;77.50
7844;DHT22;3967;48.702;9.326;2024-01-10T02:07:04;-2.40;77.30
7844;DHT22;3967;48.702;9.326;2024-01-10T02:09:31;-2.40;77.40
7844;DHT22;3967;48.702;9.326;2024-01-10T02:11:58;-2.40;78.10
7844;DHT22;3967;48.702;9.326;2024-01-10T02:14:25;-2.40;78.70
7844;DHT22;3967;48.702;9.326;2024-01-10T02:16:52;-2.40;78.80
7844;DHT22;3967;48.702;9.326;2024-01-10T02:19:24;-2.50;78.80
7844;DHT22;3967;48.702;9.326;2024-01-10T02:21:50;-2.50;79.10
7844;DHT22;3967;48.702;9.326;2024-01-10T02:24:17;-2.50;79.10
7844;DHT22;3967;48.702;9.326;2024-01-10T02:26:44;-2.50;79.10
7844;DHT22;3967;48.702;9.326;2024-01-10T02:29:11;-2.50;78.80
7844;DHT22;3967;48.702;9.326;2024-01-10T02:31:38;-2.50;79.00
7844;DHT22;3967;48.702;9.326;2024-01-10T02:34:05;-2.50;79.60
7844;DHT22;3967;48.702;9.326;2024-01-10T02:36:31;-2.70;79.80
7844;DHT22;3967;48.702;9.326;2024-01-10T02:38:58;-2.60;80.60
7844;DHT22;3967;48.702;9.326;2024-01-10T02:41:25;-2.60;80.80
7844;DHT22;3967;48.702;9.326;2024-01-10T02:43:52;-2.70;81.10
7844;DHT22;3967;48.702;9.326;2024-01-10T02:46:18;-2.60;81.70
7844;DHT22;3967;48.702;9.326;2024-01-10T02:48:46;-2.60;81.80
7844;DHT22;3967;48.702;9.326;2024-01-10T02:51:14;-2.60;82.40
7844;DHT22;3967;48.702;9.326;2024-01-10T02:53:41;-2.60;82.80
7844;DHT22;3967;48.702;9.326;2024-01-10T02:56:07;-2.60;83.40
7844;DHT22;3967;48.702;9.326;2024-01-10T02:58:34;-2.60;83.70
7844;DHT22;3967;48.702;9.326;2024-01-10T03:01:01;-2.60;84.10
7844;DHT22;3967;48.702;9.326;2024-01-10T03:03:28;-2.50;84.40
7844;DHT22;3967;48.702;9.326;2024-01-10T03:05:54;-2.50;84.40
7844;DHT22;3967;48.702;9.326;2024-01-10T03:08:21;-2.50;84.40
7844;DHT22;3967;48.702;9.326;2024-01-10T03:10:48;-2.60;84.50
7844;DHT22;3967;48.702;9.326;2024-01-10T03:13:15;-2.60;84.50
7844;DHT22;3967;48.702;9.326;2024-01-10T03:15:42;-2.60;84.80
7844;DHT22;3967;48.702;9.326;2024-01-10T03:18:08;-2.60;85.00
7844;DHT22;3967;48.702;9.326;2024-01-10T03:20:35;-2.70;84.80
7844;DHT22;3967;48.702;9.326;2024-01-10T03:23:02;-2.80;85.40
7844;DHT22;3967;48.702;9.326;2024-01-10T03:25:29;-2.80;84.80
7844;DHT22;3967;48.702;9.326;2024-01-10T03:27:56;-3.00;84.20
7844;DHT22;3967;48.702;9.326;2024-01-10T03:30:22;-2.80;84.60
7844;DHT22;3967;48.702;9.326;2024-01-10T03:32:51;-2.80;83.80
7844;DHT22;3967;48.702;9.326;2024-01-10T03:35:18;-2.70;83.40
7844;DHT22;3967;48.702;9.326;2024-01-10T03:37:44;-2.70;82.80
7844;DHT22;3967;48.702;9.326;2024-01-10T03:40:12;-2.70;82.80
7844;DHT22;3967;48.702;9.326;2024-01-10T03:42:38;-2.80;83.30
7844;DHT22;3967;48.702;9.326;2024-01-10T03:45:05;-2.80;83.20
7844;DHT22;3967;48.702;9.326;2024-01-10T03:47:32;-2.80;83.40
7844;DHT22;3967;48.702;9.326;2024-01-10T03:49:59;-2.70;83.60
7844;DHT22;3967;48.702;9.326;2024-01-10T03:52:26;-2.80;83.60
7844;DHT22;3967;48.702;9.326;2024-01-10T03:54:53;-2.70;83.50
7844;DHT22;3967;48.702;9.326;2024-01-10T03:57:20;-2.70;83.30
7844;DHT22;3967;48.702;9.326;2024-01-10T03:59:46;-2.70;83.20
7844;DHT22;3967;48.702;9.326;2024-01-10T04:02:13;-2.60;83.00
7844;DHT22;3967;48.702;9.326;2024-01-10T04:04:40;-2.80;82.90
7844;DHT22;3967;48.702;9.326;2024-01-10T04:07:07;-2.80;82.90
7844;DHT22;3967;48.702;9.326;2024-01-10T04:09:33;-2.90;82.30
7844;DHT22;3967;48.702;9.326;2024-01-10T04:12:00;-2.90;82.70
7844;DHT22;3967;48.702;9.326;2024-01-10T04:14:27;-2.80;82.80
7844;DHT22;3967;48.702;9.326;2024-01-10T04:16:54;-2.60;82.50
7844;DHT22;3967;48.702;9.326;2024-01-10T04:19:21;-2.70;81.70
7844;DHT22;3967;48.702;9.326;2024-01-10T04:21:48;-2.60;82.00
7844;DHT22;3967;48.702;9.326;2024-01-10T04:24:15;-2.70;80.90
7844;DHT22;3967;48.702;9.326;2024-01-10T04:26:41;-2.80;81.10
7844;DHT22;3967;48.702;9.326;2024-01-10T04:29:08;-2.80;80.50
7844;DHT22;3967;48.702;9.326;2024-01-10T04:31:35;-2.80;80.00
7844;DHT22;3967;48.702;9.326;2024-01-10T04:34:02;-2.90;78.80
7844;DHT22;3967;48.702;9.326;2024-01-10T04:36:29;-2.90;78.80
7844;DHT22;3967;48.702;9.326;2024-01-10T04:38:56;-2.90;78.30
7844;DHT22;3967;48.702;9.326;2024-01-10T04:41:23;-3.10;77.90
7844;DHT22;3967;48.702;9.326;2024-01-10T04:43:50;-3.00;78.40
7844;DHT22;3967;48.702;9.326;2024-01-10T04:46:23;-3.10;78.20
7844;DHT22;3967;48.702;9.326;2024-01-10T04:48:50;-3.10;78.60
7844;DHT22;3967;48.702;9.326;2024-01-10T04:51:17;-3.10;78.50
7844;DHT22;3967;48.702;9.326;2024-01-10T04:53:44;-3.10;78.70
7844;DHT22;3967;48.702;9.326;2024-01-10T04:56:11;-3.00;78.50
7844;DHT22;3967;48.702;9.326;2024-01-10T04:58:37;-3.00;78.40
7844;DHT22;3967;48.702;9.326;2024-01-10T05:01:04;-2.90;78.20
7844;DHT22;3967;48.702;9.326;2024-01-10T05:03:31;-2.80;78.00
7844;DHT22;3967;48.702;9.326;2024-01-10T05:05:58;-2.90;77.60
7844;DHT22;3967;48.702;9.326;2024-01-10T05:08:25;-2.90;78.10
7844;DHT22;3967;48.702;9.326;2024-01-10T05:10:52;-2.70;78.20
7844;DHT22;3967;48.702;9.326;2024-01-10T05:13:19;-2.60;78.20
7844;DHT22;3967;48.702;9.326;2024-01-10T05:15:46;-2.60;78.10
7844;DHT22;3967;48.702;9.326;2024-01-10T05:18:12;-2.50;77.60
7844;DHT22;3967;48.702;9.326;2024-01-10T05:20:39;-2.70;77.40
7844;DHT22;3967;48.702;9.326;2024-01-10T05:23:06;-2.70;77.70
7844;DHT22;3967;48.702;9.326;2024-01-10T05:25:33;-2.70;78.10
7844;DHT22;3967;48.702;9.326;2024-01-10T05:27:59;-2.60;78.20
7844;DHT22;3967;48.702;9.326;2024-01-10T05:30:26;-2.60;78.00
7844;DHT22;3967;48.702;9.326;2024-01-10T05:32:54;-2.50;78.00
7844;DHT22;3967;48.702;9.326;2024-01-10T05:35:22;-2.60;77.70
7844;DHT22;3967;48.702;9.326;2024-01-10T05:37:48;-2.70;78.20
7844;DHT22;3967;48.702;9.326;2024-01-10T05:40:16;-2.80;78.50
7844;DHT22;3967;48.702;9.326;2024-01-10T05:42:43;-2.70;79.60
7844;DHT22;3967;48.702;9.326;2024-01-10T05:45:10;-2.90;78.50
7844;DHT22;3967;48.702;9.326;2024-01-10T05:47:37;-2.90;78.50
7844;DHT22;3967;48.702;9.326;2024-01-10T05:50:04;-2.90;78.10
7844;DHT22;3967;48.702;9.326;2024-01-10T05:52:32;-2.90;78.50
7844;DHT22;3967;48.702;9.326;2024-01-10T05:55:01;-2.90;78.50
7844;DHT22;3967;48.702;9.326;2024-01-10T05:57:29;-2.80;78.70
7844;DHT22;3967;48.702;9.326;2024-01-10T05:59:56;-2.70;78.70
7844;DHT22;3967;48.702;9.326;2024-01-10T06:02:23;-2.50;78.70
7844;DHT22;3967;48.702;9.326;2024-01-10T06:04:51;-2.50;78.50
7844;DHT22;3967;48.702;9.326;2024-01-10T06:07:18;-2.50;78.20
7844;DHT22;3967;48.702;9.326;2024-01-10T06:09:45;-2.60;78.30
7844;DHT22;3967;48.702;9.326;2024-01-10T06:12:12;-2.60;78.80
7844;DHT22;3967;48.702;9.326;2024-01-10T06:14:39;-2.60;79.40
7844;DHT22;3967;48.702;9.326;2024-01-10T06:17:06;-2.60;79.60
7844;DHT22;3967;48.702;9.326;2024-01-10T06:19:33;-2.10;89.40
7844;DHT22;3967;48.702;9.326;2024-01-10T06:21:59;-2.40;84.00
7844;DHT22;3967;48.702;9.326;2024-01-10T06:24:26;-2.20;87.00
7844;DHT22;3967;48.702;9.326;2024-01-10T06:26:53;-2.20;83.90
7844;DHT22;3967;48.702;9.326;2024-01-10T06:29:20;-2.40;81.40
7844;DHT22;3967;48.702;9.326;2024-01-10T06:31:47;-2.40;80.20
7844;DHT22;3967;48.702;9.326;2024-01-10T06:34:14;-2.40;79.50
7844;DHT22;3967;48.702;9.326;2024-01-10T06:36:41;-2.40;79.30
7844;DHT22;3967;48.702;9.326;2024-01-10T06:39:10;-2.40;79.40
7844;DHT22;3967;48.702;9.326;2024-01-10T06:41:40;-2.40;79.20
7844;DHT22;3967;48.702;9.326;2024-01-10T06:44:07;-2.40;78.80
7844;DHT22;3967;48.702;9.326;2024-01-10T06:46:33;-2.30;78.80
7844;DHT22;3967;48.702;9.326;2024-01-10T06:49:00;-2.40;78.50
7844;DHT22;3967;48.702;9.326;2024-01-10T06:51:28;-2.50;78.70
7844;DHT22;3967;48.702;9.326;2024-01-10T06:53:55;-2.50;79.10
7844;DHT22;3967;48.702;9.326;2024-01-10T06:56:32;-2.60;79.40
7844;DHT22;3967;48.702;9.326;2024-01-10T06:58:59;-2.50;79.60
7844;DHT22;3967;48.702;9.326;2024-01-10T07:01:27;-2.50;79.60
7844;DHT22;3967;48.702;9.326;2024-01-10T07:03:54;-2.40;79.70
7844;DHT22;3967;48.702;9.326;2024-01-10T07:06:21;-2.40;79.60
7844;DHT22;3967;48.702;9.326;2024-01-10T07:08:50;-2.40;79.40
7844;DHT22;3967;48.702;9.326;2024-01-10T07:11:17;-2.40;79.50
7844;DHT22;3967;48.702;9.326;2024-01-10T07:13:44;-2.40;79.70
7844;DHT22;3967;48.702;9.326;2024-01-10T07:16:12;-2.30;79.80
7844;DHT22;3967;48.702;9.326;2024-01-10T07:18:42;-2.30;79.90
7844;DHT22;3967;48.702;9.326;2024-01-10T07:21:09;-2.30;79.90
7844;DHT22;3967;48.702;9.326;2024-01-10T07:23:37;-2.20;79.70
7844;DHT22;3967;48.702;9.326;2024-01-10T07:26:07;-2.20;79.70
7844;DHT22;3967;48.702;9.326;2024-01-10T07:28:34;-2.20;79.90
7844;DHT22;3967;48.702;9.326;2024-01-10T07:31:01;-2.30;80.10
7844;DHT22;3967;48.702;9.326;2024-01-10T07:33:29;-2.30;80.40
7844;DHT22;3967;48.702;9.326;2024-01-10T07:36:01;-2.20;80.40
7844;DHT22;3967;48.702;9.326;2024-01-10T07:38:28;-2.20;80.20
7844;DHT22;3967;48.702;9.326;2024-01-10T07:40:55;-2.20;80.00
7844;DHT22;3967;48.702;9.326;2024-01-10T07:43:22;-2.20;80.00
7844;DHT22;3967;48.702;9.326;2024-01-10T07:45:49;-2.20;80.70
7844;DHT22;3967;48.702;9.326;2024-01-10T07:48:15;-2.10;80.60
7844;DHT22;3967;48.702;9.326;2024-01-10T07:50:42;-2.10;80.80
7844;DHT22;3967;48.702;9.326;2024-01-10T07:53:09;-2.10;81.00
7844;DHT22;3967;48.702;9.326;2024-01-10T07:55:36;-2.10;81.30
7844;DHT22;3967;48.702;9.326;2024-01-10T07:58:03;-2.10;81.60
7844;DHT22;3967;48.702;9.326;2024-01-10T08:00:29;-2.10;81.70
7844;DHT22;3967;48.702;9.326;2024-01-10T08:02:57;-2.20;81.80
7844;DHT22;3967;48.702;9.326;2024-01-10T08:05:24;-2.20;81.80
7844;DHT22;3967;48.702;9.326;2024-01-10T08:07:52;-2.10;82.10
7844;DHT22;3967;48.702;9.326;2024-01-10T08:10:18;-2.10;82.60
7844;DHT22;3967;48.702;9.326;2024-01-10T08:12:45;-2.00;82.40
7844;DHT22;3967;48.702;9.326;2024-01-10T08:15:12;-2.20;82.00
7844;DHT22;3967;48.702;9.326;2024-01-10T08:17:39;-2.10;81.50
7844;DHT22;3967;48.702;9.326;2024-01-10T08:20:07;-2.10;81.40
7844;DHT22;3967;48.702;9.326;2024-01-10T08:22:35;-2.20;81.40
7844;DHT22;3967;48.702;9.326;2024-01-10T08:25:02;-2.20;82.00
7844;DHT22;3967;48.702;9.326;2024-01-10T08:27:29;-2.20;82.40
7844;DHT22;3967;48.702;9.326;2024-01-10T08:29:56;-2.00;82.70
7844;DHT22;3967;48.702;9.326;2024-01-10T08:32:23;-2.20;82.40
7844;DHT22;3967;48.702;9.326;2024-01-10T08:34:50;-2.10;82.70
7844;DHT22;3967;48.702;9.326;2024-01-10T08:37:17;-2.20;82.50
7844;DHT22;3967;48.702;9.326;2024-01-10T08:39:44;-2.00;82.70
7844;DHT22;3967;48.702;9.326;2024-01-10T08:42:11;-1.80;82.60
7844;DHT22;3967;48.702;9.326;2024-01-10T08:44:38;-1.70;82.20
7844;DHT22;3967;48.702;9.326;2024-01-10T08:47:05;-1.80;81.70
7844;DHT22;3967;48.702;9.326;2024-01-10T08:49:32;-1.80;81.20
7844;DHT22;3967;48.702;9.326;2024-01-10T08:51:58;-1.60;81.40
7844;DHT22;3967;48.702;9.326;2024-01-10T08:54:25;-1.40;81.20
7844;DHT22;3967;48.702;9.326;2024-01-10T08:56:53;-1.30;80.80
7844;DHT22;3967;48.702;9.326;2024-01-10T08:59:20;-1.30;80.20
7844;DHT22;3967;48.702;9.326;2024-01-10T09:01:47;-1.30;80.30
7844;DHT22;3967;48.702;9.326;2024-01-10T09:04:13;-1.30;80.20
7844;DHT22;3967;48.702;9.326;2024-01-10T09:06:40;-1.50;80.20
7844;DHT22;3967;48.702;9.326;2024-01-10T09:09:07;-1.40;81.20
7844;DHT22;3967;48.702;9.326;2024-01-10T09:11:34;-1.40;81.30
7844;DHT22;3967;48.702;9.326;2024-01-10T09:14:06;-1.20;81.60
7844;DHT22;3967;48.702;9.326;2024-01-10T09:16:33;-1.30;80.70
7844;DHT22;3967;48.702;9.326;2024-01-10T09:19:00;-1.30;81.10
7844;DHT22;3967;48.702;9.326;2024-01-10T09:21:27;-1.20;81.20
7844;DHT22;3967;48.702;9.326;2024-01-10T09:23:53;-1.10;81.00
7844;DHT22;3967;48.702;9.326;2024-01-10T09:26:22;-1.20;80.60
7844;DHT22;3967;48.702;9.326;2024-01-10T09:28:49;-1.40;80.20
7844;DHT22;3967;48.702;9.326;2024-01-10T09:31:16;-1.40;80.10
7844;DHT22;3967;48.702;9.326;2024-01-10T09:33:43;-1.30;80.10
7844;DHT22;3967;48.702;9.326;2024-01-10T09:36:10;-1.50;79.50
7844;DHT22;3967;48.702;9.326;2024-01-10T09:38:37;-1.40;80.20
7844;DHT22;3967;48.702;9.326;2024-01-10T09:41:04;-1.30;80.40
7844;DHT22;3967;48.702;9.326;2024-01-10T09:43:32;-1.10;80.20
7844;DHT22;3967;48.702;9.326;2024-01-10T09:46:02;-0.90;79.90
7844;DHT22;3967;48.702;9.326;2024-01-10T09:48:29;-0.80;79.70
7844;DHT22;3967;48.702;9.326;2024-01-10T09:50:57;-0.90;78.40
7844;DHT22;3967;48.702;9.326;2024-01-10T09:53:25;-0.90;77.80
7844;DHT22;3967;48.702;9.326;2024-01-10T09:55:57;-0.90;77.10
7844;DHT22;3967;48.702;9.326;2024-01-10T09:58:24;-1.00;77.10
7844;DHT22;3967;48.702;9.326;2024-01-10T10:00:54;-0.80;77.30
7844;DHT22;3967;48.702;9.326;2024-01-10T10:03:21;-0.80;76.30
7844;DHT22;3967;48.702;9.326;2024-01-10T10:05:48;-0.70;76.00
7844;DHT22;3967;48.702;9.326;2024-01-10T10:08:15;-0.80;76.50
7844;DHT22;3967;48.702;9.326;2024-01-10T10:10:49;-0.80;76.90
7844;DHT22;3967;48.702;9.326;2024-01-10T10:13:26;-0.70;77.30
7844;DHT22;3967;48.702;9.326;2024-01-10T10:16:03;-0.60;77.20
7844;DHT22;3967;48.702;9.326;2024-01-10T10:18:31;-0.70;76.90
7844;DHT22;3967;48.702;9.326;2024-01-10T10:21:13;-0.70;77.00
7844;DHT22;3967;48.702;9.326;2024-01-10T10:23:42;-0.70;76.70
7844;DHT22;3967;48.702;9.326;2024-01-10T10:28:37;-0.60;77.00
7844;DHT22;3967;48.702;9.326;2024-01-10T10:31:04;-0.70;76.40
7844;DHT22;3967;48.702;9.326;2024-01-10T10:33:32;-0.60;76.50
7844;DHT22;3967;48.702;9.326;2024-01-10T10:35:59;-0.70;76.10
7844;DHT22;3967;48.702;9.326;2024-01-10T10:38:26;-0.60;76.80
7844;DHT22;3967;48.702;9.326;2024-01-10T10:40:53;-0.70;76.00
7844;DHT22;3967;48.702;9.326;2024-01-10T10:43:21;-0.70;76.80
7844;DHT22;3967;48.702;9.326;2024-01-10T10:45:49;-0.60;77.20
7844;DHT22;3967;48.702;9.326;2024-01-10T10:48:19;-0.70;77.40
7844;DHT22;3967;48.702;9.326;2024-01-10T10:51:01;-0.70;77.20
7844;DHT22;3967;48.702;9.326;2024-01-10T10:53:31;-0.40;76.90
7844;DHT22;3967;48.702;9.326;2024-01-10T10:56:00;-0.30;76.60
7844;DHT22;3967;48.702;9.326;2024-01-10T10:58:34;-0.20;76.30
7844;DHT22;3967;48.702;9.326;2024-01-10T11:01:06;-0.30;76.10
7844;DHT22;3967;48.702;9.326;2024-01-10T11:03:35;-0.40;76.40
7844;DHT22;3967;48.702;9.326;2024-01-10T11:06:04;-0.30;76.80
7844;DHT22;3967;48.702;9.326;2024-01-10T11:08:48;-0.10;76.70
7844;DHT22;3967;48.702;9.326;2024-01-10T11:11:34;-0.20;75.90
7844;DHT22;3967;48.702;9.326;2024-01-10T11:14:38;-0.20;76.50
7844;DHT22;3967;48.702;9.326;2024-01-10T11:24:58;0.00;75.70
7844;DHT22;3967;48.702;9.326;2024-01-10T11:27:28;0.10;75.50
7844;DHT22;3967;48.702;9.326;2024-01-10T11:29:55;0.20;75.90
7844;DHT22;3967;48.702;9.326;2024-01-10T11:32:23;0.20;75.90
7844;DHT22;3967;48.702;9.326;2024-01-10T11:37:20;0.10;76.00
7844;DHT22;3967;48.702;9.326;2024-01-10T11:39:47;0.20;75.40
7844;DHT22;3967;48.702;9.326;2024-01-10T11:42:24;0.10;75.80
7844;DHT22;3967;48.702;9.326;2024-01-10T11:45:07;-0.10;76.20
7844;DHT22;3967;48.702;9.326;2024-01-10T11:47:39;0.00;76.50
7844;DHT22;3967;48.702;9.326;2024-01-10T11:50:08;0.00;75.90
7844;DHT22;3967;48.702;9.326;2024-01-10T11:52:37;0.20;75.90
7844;DHT22;3967;48.702;9.326;2024-01-10T11:55:04;0.20;76.50
7844;DHT22;3967;48.702;9.326;2024-01-10T11:57:33;0.20;75.80
7844;DHT22;3967;48.702;9.326;2024-01-10T12:00:01;0.30;75.40
7844;DHT22;3967;48.702;9.326;2024-01-10T12:02:32;0.30;75.30
7844;DHT22;3967;48.702;9.326;2024-01-10T12:04:59;0.30;75.50
7844;DHT22;3967;48.702;9.326;2024-01-10T12:07:26;0.40;75.40
7844;DHT22;3967;48.702;9.326;2024-01-10T12:09:54;0.30;75.70
7844;DHT22;3967;48.702;9.326;2024-01-10T12:12:21;0.40;76.40
7844;DHT22;3967;48.702;9.326;2024-01-10T12:14:50;0.50;76.20
7844;DHT22;3967;48.702;9.326;2024-01-10T12:17:18;0.40;76.10
7844;DHT22;3967;48.702;9.326;2024-01-10T12:19:46;0.50;76.00
7844;DHT22;3967;48.702;9.326;2024-01-10T12:22:16;0.50;76.20
7844;DHT22;3967;48.702;9.326;2024-01-10T12:24:47;0.60;76.10
7844;DHT22;3967;48.702;9.326;2024-01-10T12:27:21;0.70;76.20
7844;DHT22;3967;48.702;9.326;2024-01-10T12:29:50;0.60;75.80
7844;DHT22;3967;48.702;9.326;2024-01-10T12:32:20;0.70;75.70
7844;DHT22;3967;48.702;9.326;2024-01-10T12:34:55;0.80;75.20
7844;DHT22;3967;48.702;9.326;2024-01-10T12:37:24;0.70;75.30
7844;DHT22;3967;48.702;9.326;2024-01-10T12:39:51;0.80;75.70
7844;DHT22;3967;48.702;9.326;2024-01-10T12:42:18;0.60;75.40
7844;DHT22;3967;48.702;9.326;2024-01-10T12:44:45;0.60;75.90
7844;DHT22;3967;48.702;9.326;2024-01-10T12:47:20;0.70;76.00
7844;DHT22;3967;48.702;9.326;2024-01-10T12:49:47;0.90;76.00
7844;DHT22;3967;48.702;9.326;2024-01-10T12:52:14;0.90;75.80
7844;DHT22;3967;48.702;9.326;2024-01-10T12:54:45;1.00;75.40
7844;DHT22;3967;48.702;9.326;2024-01-10T12:57:11;1.10;74.90
7844;DHT22;3967;48.702;9.326;2024-01-10T12:59:38;1.20;74.80
7844;DHT22;3967;48.702;9.326;2024-01-10T13:02:05;1.20;74.80
7844;DHT22;3967;48.702;9.326;2024-01-10T13:04:33;1.10;74.80
7844;DHT22;3967;48.702;9.326;2024-01-10T13:06:59;1.10;75.20
7844;DHT22;3967;48.702;9.326;2024-01-10T13:09:27;1.00;75.50
7844;DHT22;3967;48.702;9.326;2024-01-10T13:11:54;1.10;76.00
7844;DHT22;3967;48.702;9.326;2024-01-10T13:14:20;1.30;75.80
7844;DHT22;3967;48.702;9.326;2024-01-10T13:16:47;1.30;75.40
7844;DHT22;3967;48.702;9.326;2024-01-10T13:19:25;1.30;75.90
7844;DHT22;3967;48.702;9.326;2024-01-10T13:21:53;1.30;76.00
7844;DHT22;3967;48.702;9.326;2024-01-10T13:24:20;1.40;75.90
7844;DHT22;3967;48.702;9.326;2024-01-10T13:26:46;1.40;75.60
7844;DHT22;3967;48.702;9.326;2024-01-10T13:29:15;1.20;75.10
7844;DHT22;3967;48.702;9.326;2024-01-10T13:31:42;1.20;75.20
7844;DHT22;3967;48.702;9.326;2024-01-10T13:34:09;1.30;75.30
7844;DHT22;3967;48.702;9.326;2024-01-10T13:36:38;1.30;75.50
7844;DHT22;3967;48.702;9.326;2024-01-10T13:39:04;1.40;75.60
7844;DHT22;3967;48.702;9.326;2024-01-10T13:41:31;1.30;75.20
7844;DHT22;3967;48.702;9.326;2024-01-10T13:43:58;1.40;75.40
7844;DHT22;3967;48.702;9.326;2024-01-10T13:46:25;1.50;75.80
7844;DHT22;3967;48.702;9.326;2024-01-10T13:48:52;1.60;75.50
7844;DHT22;3967;48.702;9.326;2024-01-10T13:51:19;1.50;74.70
7844;DHT22;3967;48.702;9.326;2024-01-10T13:53:45;1.50;74.90
7844;DHT22;3967;48.702;9.326;2024-01-10T13:56:12;1.50;75.00
7844;DHT22;3967;48.702;9.326;2024-01-10T13:58:39;1.40;75.30
7844;DHT22;3967;48.702;9.326;2024-01-10T14:01:06;1.50;75.20
7844;DHT22;3967;48.702;9.326;2024-01-10T14:03:33;1.60;75.00
7844;DHT22;3967;48.702;9.326;2024-01-10T14:06:00;1.50;74.90
7844;DHT22;3967;48.702;9.326;2024-01-10T14:08:27;1.60;75.10
7844;DHT22;3967;48.702;9.326;2024-01-10T14:10:54;1.70;75.10
7844;DHT22;3967;48.702;9.326;2024-01-10T14:13:21;1.80;74.80
7844;DHT22;3967;48.702;9.326;2024-01-10T14:15:49;1.80;74.30
7844;DHT22;3967;48.702;9.326;2024-01-10T14:18:16;1.80;73.90
7844;DHT22;3967;48.702;9.326;2024-01-10T14:20:43;1.90;74.00
7844;DHT22;3967;48.702;9.326;2024-01-10T14:23:11;2.00;74.00
7844;DHT22;3967;48.702;9.326;2024-01-10T14:25:38;2.10;73.70
7844;DHT22;3967;48.702;9.326;2024-01-10T14:28:05;2.00;73.60
7844;DHT22;3967;48.702;9.326;2024-01-10T14:30:31;2.10;74.00
7844;DHT22;3967;48.702;9.326;2024-01-10T14:32:59;1.90;73.80
7844;DHT22;3967;48.702;9.326;2024-01-10T14:35:26;1.90;74.10
7844;DHT22;3967;48.702;9.326;2024-01-10T14:37:53;2.10;74.10
7844;DHT22;3967;48.702;9.326;2024-01-10T14:40:20;2.10;73.90
7844;DHT22;3967;48.702;9.326;2024-01-10T14:42:50;2.10;73.80
7844;DHT22;3967;48.702;9.326;2024-01-10T14:45:17;2.10;74.10
7844;DHT22;3967;48.702;9.326;2024-01-10T14:47:43;2.20;74.00
7844;DHT22;3967;48.702;9.326;2024-01-10T14:50:10;2.20;73.80
7844;DHT22;3967;48.702;9.326;2024-01-10T14:52:38;2.30;73.40
7844;DHT22;3967;48.702;9.326;2024-01-10T14:55:05;2.30;73.70
7844;DHT22;3967;48.702;9.326;2024-01-10T14:57:32;2.30;74.70
7844;DHT22;3967;48.702;9.326;2024-01-10T14:59:59;2.30;74.20
7844;DHT22;3967;48.702;9.326;2024-01-10T15:02:26;2.30;74.50
7844;DHT22;3967;48.702;9.326;2024-01-10T15:04:53;2.30;74.60
7844;DHT22;3967;48.702;9.326;2024-01-10T15:07:20;2.30;74.80
7844;DHT22;3967;48.702;9.326;2024-01-10T15:09:47;2.20;74.80
7844;DHT22;3967;48.702;9.326;2024-01-10T15:12:14;2.20;75.10
7844;DHT22;3967;48.702;9.326;2024-01-10T15:14:41;2.10;75.20
7844;DHT22;3967;48.702;9.326;2024-01-10T15:17:08;2.10;75.30
7844;DHT22;3967;48.702;9.326;2024-01-10T15:19:38;2.00;75.30
7844;DHT22;3967;48.702;9.326;2024-01-10T15:22:05;2.00;75.60
7844;DHT22;3967;48.702;9.326;2024-01-10T15:24:32;2.00;76.00
7844;DHT22;3967;48.702;9.326;2024-01-10T15:26:59;2.00;76.00
7844;DHT22;3967;48.702;9.326;2024-01-10T15:29:37;2.00;76.30
7844;DHT22;3967;48.702;9.326;2024-01-10T15:32:05;1.90;76.70
7844;DHT22;3967;48.702;9.326;2024-01-10T15:34:32;1.80;77.40
7844;DHT22;3967;48.702;9.326;2024-01-10T15:36:59;1.80;78.10
7844;DHT22;3967;48.702;9.326;2024-01-10T15:39:26;1.60;78.80
7844;DHT22;3967;48.702;9.326;2024-01-10T15:41:53;1.50;79.70
7844;DHT22;3967;48.702;9.326;2024-01-10T15:44:21;1.50;80.30
7844;DHT22;3967;48.702;9.326;2024-01-10T15:46:48;1.50;80.70
7844;DHT22;3967;48.702;9.326;2024-01-10T15:49:16;1.50;81.00
7844;DHT22;3967;48.702;9.326;2024-01-10T15:51:43;1.40;81.00
7844;DHT22;3967;48.702;9.326;2024-01-10T15:54:11;1.40;81.30
7844;DHT22;3967;48.702;9.326;2024-01-10T15:56:39;1.40;81.20
7844;DHT22;3967;48.702;9.326;2024-01-10T15:59:08;1.20;81.20
7844;DHT22;3967;48.702;9.326;2024-01-10T16:01:35;1.20;81.20
7844;DHT22;3967;48.702;9.326;2024-01-10T16:04:02;1.20;81.10
7844;DHT22;3967;48.702;9.326;2024-01-10T16:06:33;1.10;81.40
7844;DHT22;3967;48.702;9.326;2024-01-10T16:09:01;1.10;81.40
7844;DHT22;3967;48.702;9.326;2024-01-10T16:11:30;0.80;81.70
7844;DHT22;3967;48.702;9.326;2024-01-10T16:13:57;0.80;82.50
7844;DHT22;3967;48.702;9.326;2024-01-10T16:16:27;0.80;82.40
7844;DHT22;3967;48.702;9.326;2024-01-10T16:18:57;0.90;83.00
7844;DHT22;3967;48.702;9.326;2024-01-10T16:21:24;0.80;83.10
7844;DHT22;3967;48.702;9.326;2024-01-10T16:23:52;0.70;83.70